Avant, Oklahoma
Current Conditions -  °F | °C
As of 9:16 AM on Wednesday 22 Oct 2014 (Local Time) from KBVO Reporting Station
Haze Haze  
Wind Chill: 61°   Ceiling: 100
Heat Index: 61°   Visibility: 3mi
Dew Point: 61°   Wind: 5mph
Humidity: 100%   Direction: 170°S
Pressure: 30.18"   Gusts: NA
Location:  36.49°N, 96.06°W
Report Text: KBVO 221416Z AUTO 17004KT 3SM BR BKN001 16/16 A3018 RMK AO2 T01610161
Loading
Personal Weather Stations






























Interactive Weather Map New forecast layout! Learn more

10-Day Weather Forecast

Advertisements
Track Severe Weather on mobile